createdAt,value
2023-05-05T00:03:05.382Z,12.90
2023-05-05T00:08:04.587Z,14.50
2023-05-05T00:13:04.234Z,13.80
2023-05-05T00:18:03.252Z,13.40
2023-05-05T00:23:02.910Z,16.80
2023-05-05T00:28:02.473Z,12.30
2023-05-05T00:33:02.198Z,10.30
2023-05-05T00:38:01.202Z,10.30
2023-05-05T00:43:01.384Z,9.10
2023-05-05T00:48:03.023Z,10.40
2023-05-05T00:53:07.160Z,11.10
2023-05-05T00:58:07.463Z,13.70
2023-05-05T01:03:07.246Z,11.90
2023-05-05T01:08:25.279Z,10.00
2023-05-05T01:13:39.683Z,10.40
2023-05-05T01:18:49.266Z,11.00
2023-05-05T01:24:13.708Z,12.50
2023-05-05T01:30:01.020Z,11.50
2023-05-05T01:35:11.477Z,8.60
2023-05-05T01:40:14.296Z,9.00
2023-05-05T01:45:19.365Z,9.30
2023-05-05T01:50:21.012Z,13.50
2023-05-05T01:55:26.594Z,10.80
2023-05-05T02:00:28.815Z,10.90
2023-05-05T02:05:30.506Z,9.30
2023-05-05T02:10:30.230Z,9.40
2023-05-05T02:15:31.710Z,11.30
2023-05-05T02:20:34.567Z,9.00
2023-05-05T02:25:44.572Z,12.10
2023-05-05T02:30:45.804Z,9.80
2023-05-05T02:35:51.612Z,9.90
2023-05-05T02:40:56.430Z,8.70
2023-05-05T02:45:55.800Z,11.30
2023-05-05T02:50:55.691Z,9.50
2023-05-05T02:56:16.452Z,8.70
2023-05-05T03:01:34.964Z,8.10
2023-05-05T03:06:41.781Z,8.20
2023-05-05T03:11:49.087Z,8.30
2023-05-05T03:16:50.866Z,8.30
2023-05-05T03:21:50.983Z,8.20
2023-05-05T03:26:51.732Z,9.00
2023-05-05T03:31:52.413Z,9.60
2023-05-05T03:36:51.384Z,8.40
2023-05-05T03:41:52.814Z,8.80
2023-05-05T03:46:52.516Z,9.80
2023-05-05T03:51:52.628Z,12.20
2023-05-05T03:56:52.029Z,11.10
2023-05-05T04:01:50.948Z,11.40
2023-05-05T04:06:50.237Z,10.60
2023-05-05T04:11:49.922Z,14.00
2023-05-05T04:16:50.346Z,13.00
2023-05-05T04:21:49.397Z,9.20
2023-05-05T04:26:48.299Z,11.30
2023-05-05T04:31:48.140Z,11.10
2023-05-05T04:36:47.817Z,9.00
2023-05-05T04:41:47.998Z,10.30
2023-05-05T04:46:48.128Z,8.40
2023-05-05T04:51:51.263Z,11.00
2023-05-05T04:56:50.636Z,11.70
2023-05-05T05:01:53.209Z,8.90
2023-05-05T05:06:53.065Z,8.30
2023-05-05T05:11:52.799Z,8.60
2023-05-05T05:16:52.866Z,11.00
2023-05-05T05:21:52.616Z,7.50
2023-05-05T05:26:51.970Z,12.20
2023-05-05T05:31:51.807Z,8.60
2023-05-05T05:36:51.270Z,6.40
2023-05-05T05:41:51.897Z,6.70
2023-05-05T05:46:51.159Z,11.70
2023-05-05T05:51:50.674Z,8.00
2023-05-05T05:56:50.713Z,8.80
2023-05-05T06:01:50.805Z,7.60
2023-05-05T06:06:50.940Z,7.50
2023-05-05T06:11:50.156Z,9.10
2023-05-05T06:16:49.529Z,7.50
2023-05-05T06:21:51.017Z,6.40
2023-05-05T06:26:50.343Z,5.10
2023-05-05T06:31:49.463Z,8.30
2023-05-05T06:36:49.200Z,7.60
2023-05-05T06:41:48.390Z,12.40
2023-05-05T06:46:48.089Z,6.30
2023-05-05T06:51:47.333Z,6.80
2023-05-05T06:56:46.277Z,10.80
2023-05-05T07:01:45.172Z,9.90
2023-05-05T07:06:44.581Z,7.30
2023-05-05T07:11:44.455Z,6.80
2023-05-05T07:16:45.256Z,6.20
2023-05-05T07:21:45.188Z,10.30
2023-05-05T07:26:44.501Z,6.30
2023-05-05T07:31:43.435Z,6.40
2023-05-05T07:36:43.112Z,6.10
2023-05-05T07:41:42.722Z,10.30
2023-05-05T07:46:44.740Z,8.00
2023-05-05T07:51:45.047Z,9.90
2023-05-05T07:56:43.766Z,6.80
2023-05-05T08:01:43.728Z,8.90
2023-05-05T08:06:43.242Z,6.70
2023-05-05T08:11:42.798Z,6.10
2023-05-05T08:16:42.748Z,6.20
2023-05-05T08:21:41.979Z,4.80
2023-05-05T08:26:44.365Z,6.90
2023-05-05T08:31:43.838Z,6.40
2023-05-05T08:36:43.356Z,6.40
2023-05-05T08:41:43.148Z,4.60
2023-05-05T08:46:44.497Z,4.60
2023-05-05T08:51:48.145Z,4.10
2023-05-05T08:56:51.651Z,5.60
2023-05-05T09:01:55.059Z,8.20
2023-05-05T09:07:01.374Z,7.90
2023-05-05T09:12:19.947Z,6.50
2023-05-05T09:17:34.418Z,4.90
2023-05-05T09:22:51.600Z,4.50
2023-05-05T09:27:55.284Z,4.80
2023-05-05T09:33:11.808Z,5.80
2023-05-05T09:38:25.806Z,6.40
2023-05-05T09:43:53.873Z,5.90
2023-05-05T09:48:57.058Z,5.80
2023-05-05T09:54:07.731Z,4.60
2023-05-05T09:59:16.690Z,5.90
2023-05-05T10:04:37.162Z,4.40
2023-05-05T10:09:46.740Z,6.30
2023-05-05T10:14:57.300Z,5.20
2023-05-05T10:20:14.501Z,3.80
2023-05-05T10:25:19.742Z,4.50
2023-05-05T10:30:25.590Z,5.60
2023-05-05T10:35:28.205Z,4.50
2023-05-05T10:40:29.497Z,3.50
2023-05-05T10:45:29.150Z,2.70
2023-05-05T10:50:39.304Z,5.80
2023-05-05T10:55:50.052Z,4.40
2023-05-05T11:00:56.365Z,4.30
2023-05-05T11:06:14.557Z,5.20
2023-05-05T11:11:15.493Z,6.00
2023-05-05T11:16:49.977Z,4.70
2023-05-05T11:27:16.156Z,4.50
2023-05-05T11:32:20.223Z,4.30
2023-05-05T11:37:24.232Z,3.10
2023-05-05T11:42:30.356Z,4.20
2023-05-05T11:47:39.124Z,6.80
2023-05-05T11:52:38.334Z,3.70
2023-05-05T11:57:38.071Z,7.10
2023-05-05T12:02:38.727Z,5.90
2023-05-05T12:07:45.833Z,6.40
2023-05-05T12:12:55.305Z,5.40
2023-05-05T12:17:59.529Z,3.80
2023-05-05T12:23:05.396Z,4.20
2023-05-05T12:28:05.952Z,6.50
2023-05-05T12:33:09.792Z,7.50
2023-05-05T12:38:08.525Z,4.00
2023-05-05T12:43:07.515Z,4.80
2023-05-05T12:48:24.485Z,3.80
2023-05-05T12:53:28.065Z,4.80
2023-05-05T12:58:29.333Z,7.40
2023-05-05T13:03:28.837Z,4.70
2023-05-05T13:08:44.925Z,4.30
2023-05-05T13:13:43.967Z,3.70
2023-05-05T13:18:51.320Z,4.20
2023-05-05T13:23:50.556Z,5.00
2023-05-05T13:28:50.385Z,3.30
2023-05-05T13:33:49.385Z,7.20
2023-05-05T13:38:49.089Z,5.70
2023-05-05T13:43:48.987Z,5.90
2023-05-05T13:48:49.163Z,6.00
2023-05-05T13:53:51.147Z,6.40
2023-05-05T13:58:50.476Z,4.40
2023-05-05T14:03:49.970Z,3.90
2023-05-05T14:08:49.113Z,4.00
2023-05-05T14:13:49.054Z,5.80
2023-05-05T14:18:48.292Z,3.90
2023-05-05T14:23:47.414Z,2.80
2023-05-05T14:28:49.584Z,3.90
2023-05-05T14:33:49.433Z,6.20
2023-05-05T14:38:48.938Z,3.40
2023-05-05T14:43:49.422Z,5.50
2023-05-05T14:48:48.907Z,2.80
2023-05-05T14:53:47.932Z,2.70
2023-05-05T14:58:48.274Z,4.00
2023-05-05T15:03:48.331Z,3.20
2023-05-05T15:08:47.794Z,2.60
2023-05-05T15:13:47.134Z,3.20
2023-05-05T15:18:46.192Z,2.60
2023-05-05T15:23:45.686Z,3.50
2023-05-05T15:28:44.710Z,4.40
2023-05-05T15:33:45.762Z,6.00
2023-05-05T15:38:46.796Z,3.60
2023-05-05T15:43:45.577Z,4.60
2023-05-05T15:48:44.424Z,4.90
2023-05-05T15:53:43.263Z,6.50
2023-05-05T15:58:41.709Z,6.10
2023-05-05T16:03:41.575Z,4.80
2023-05-05T16:08:41.708Z,5.20
2023-05-05T16:13:40.940Z,4.60
2023-05-05T16:18:40.092Z,4.50
2023-05-05T16:23:39.659Z,4.50
2023-05-05T16:28:39.911Z,4.20
2023-05-05T16:33:41.452Z,5.00
2023-05-05T16:38:40.788Z,4.50
2023-05-05T16:43:41.893Z,4.20
2023-05-05T16:48:41.209Z,3.70
2023-05-05T16:53:41.550Z,5.40
2023-05-05T16:58:42.601Z,4.70
2023-05-05T17:03:44.202Z,3.70
2023-05-05T17:08:43.499Z,6.90
2023-05-05T17:13:43.727Z,5.60
2023-05-05T17:18:42.831Z,4.20
2023-05-05T17:23:42.589Z,5.70
2023-05-05T17:28:42.120Z,6.20
2023-05-05T17:33:41.395Z,4.40
2023-05-05T17:38:40.767Z,8.40
2023-05-05T17:43:39.829Z,5.40
2023-05-05T17:48:39.615Z,5.40
2023-05-05T17:53:38.730Z,4.40
2023-05-05T17:58:38.491Z,5.70
2023-05-05T18:03:40.052Z,5.30
2023-05-05T18:08:40.085Z,6.60
2023-05-05T18:13:38.941Z,9.20
2023-05-05T18:18:38.872Z,9.50
2023-05-05T18:23:38.499Z,6.90
2023-05-05T18:28:39.457Z,8.50
2023-05-05T18:33:38.990Z,8.10
2023-05-05T18:38:38.638Z,7.10
2023-05-05T18:43:40.100Z,6.50
2023-05-05T18:48:39.181Z,7.00
2023-05-05T18:53:38.046Z,6.20
2023-05-05T18:58:37.482Z,7.50
2023-05-05T19:03:37.684Z,7.90
2023-05-05T19:08:37.290Z,7.60
2023-05-05T19:18:39.274Z,12.10
2023-05-05T19:23:39.108Z,9.30
2023-05-05T19:28:38.012Z,10.70
2023-05-05T19:33:37.851Z,10.90
2023-05-05T19:38:37.200Z,10.40
2023-05-05T19:43:36.744Z,11.50
2023-05-05T19:48:36.125Z,10.20
2023-05-05T19:53:36.054Z,10.70
2023-05-05T19:58:57.547Z,11.10
2023-05-05T20:03:59.794Z,11.40
2023-05-05T20:08:59.004Z,13.00
2023-05-05T20:13:58.468Z,11.20
2023-05-05T20:18:58.031Z,11.30
2023-05-05T20:23:57.542Z,13.60
2023-05-05T20:28:56.771Z,12.20
2023-05-05T20:33:56.611Z,15.30
2023-05-05T20:38:55.408Z,15.20
2023-05-05T20:43:57.416Z,14.40
2023-05-05T20:48:56.871Z,10.80
2023-05-05T20:53:56.542Z,13.90
2023-05-05T20:58:56.696Z,12.70
2023-05-05T21:03:55.817Z,12.70
2023-05-05T21:08:56.546Z,10.80
2023-05-05T21:13:55.967Z,12.10
2023-05-05T21:18:55.509Z,10.40
2023-05-05T21:23:55.487Z,12.90
2023-05-05T21:28:55.704Z,9.10
2023-05-05T21:33:55.917Z,13.70
2023-05-05T21:38:58.409Z,8.80
2023-05-05T21:43:59.200Z,9.20
2023-05-05T21:48:58.976Z,9.50
2023-05-05T21:53:58.998Z,9.90
2023-05-05T21:58:58.310Z,10.00
2023-05-05T22:03:57.716Z,8.50
2023-05-05T22:08:57.788Z,11.70
2023-05-05T22:13:58.907Z,8.80
2023-05-05T22:19:01.886Z,10.50
2023-05-05T22:24:01.062Z,11.70
2023-05-05T22:29:00.995Z,8.10
2023-05-05T22:34:00.539Z,12.40
2023-05-05T22:39:01.518Z,11.40
2023-05-05T22:44:00.789Z,8.60
2023-05-05T22:49:00.279Z,9.70
2023-05-05T22:53:59.836Z,11.10
2023-05-05T22:59:01.689Z,9.30
2023-05-05T23:04:01.135Z,11.50
2023-05-05T23:09:02.400Z,9.70
2023-05-05T23:14:01.585Z,11.50
2023-05-05T23:19:04.038Z,8.60
2023-05-05T23:24:26.719Z,10.90
2023-05-05T23:29:26.537Z,8.20
2023-05-05T23:34:28.460Z,8.60
2023-05-05T23:39:27.988Z,6.90
2023-05-05T23:44:27.852Z,6.90
2023-05-05T23:49:27.235Z,6.20
2023-05-05T23:54:26.391Z,7.00
2023-05-05T23:59:26.049Z,5.70
